Time;durP1;ratioP1;P1;durP2;ratioP2;P2;SDS_P1;SDS_P2;PMS_P1;PMS_P2;Temp;Humidity;BMP_temperature;BMP_pressure;BME280_temperature;BME280_humidity;BME280_pressure;Samples;Min_cycle;Max_cycle;Signal;HPM_P1;HPM_P2
2021/12/19 00:00:06;;;;;;;110.70;24.53;;;5.10;99.90;;;;;;5078889;28;20322;-64
2021/12/19 00:02:46;;;;;;;99.83;22.20;;;5.00;99.90;;;;;;5083405;28;20301;-65
2021/12/19 00:10:46;;;;;;;102.73;22.07;;;5.10;99.90;;;;;;5084453;28;20286;-64
2021/12/19 00:13:16;;;;;;;98.43;21.60;;;5.10;99.90;;;;;;5082248;28;20224;-65
2021/12/19 00:15:44;;;;;;;105.50;22.33;;;5.10;99.90;;;;;;5089219;28;20207;-65
2021/12/19 00:18:13;;;;;;;103.67;23.00;;;5.10;99.90;;;;;;5087736;28;20270;-64
2021/12/19 00:20:41;;;;;;;112.37;23.57;;;5.10;99.90;;;;;;5071960;28;20205;-65
2021/12/19 00:23:29;;;;;;;111.40;23.40;;;5.10;99.90;;;;;;5080989;28;20680;-64
2021/12/19 00:25:58;;;;;;;106.27;23.67;;;5.10;99.90;;;;;;5088643;28;20246;-65
2021/12/19 00:28:28;;;;;;;118.70;25.37;;;5.10;99.90;;;;;;5084810;28;20215;-64
2021/12/19 00:30:56;;;;;;;121.23;24.50;;;5.10;99.90;;;;;;5064514;28;20735;-65
2021/12/19 00:33:26;;;;;;;120.27;25.60;;;5.10;99.90;;;;;;5077835;28;20611;-65
2021/12/19 00:35:54;;;;;;;129.40;25.57;;;5.10;99.90;;;;;;5087343;28;20262;-65
2021/12/19 00:38:23;;;;;;;129.80;24.83;;;5.10;99.90;;;;;;5085065;28;20229;-65
2021/12/19 00:40:53;;;;;;;126.33;24.23;;;5.10;99.90;;;;;;5087417;28;20227;-64
2021/12/19 00:43:33;;;;;;;123.37;24.80;;;5.10;99.90;;;;;;5066338;28;20273;-65
2021/12/19 00:46:07;;;;;;;126.33;24.67;;;5.10;99.90;;;;;;5092010;28;20206;-64
2021/12/19 00:48:37;;;;;;;124.67;24.70;;;5.20;99.90;;;;;;5083538;28;20199;-65
2021/12/19 00:51:10;;;;;;;120.00;23.50;;;5.10;99.90;;;;;;5064724;28;20608;-65
2021/12/19 00:53:40;;;;;;;120.30;24.73;;;5.20;99.90;;;;;;5065247;28;20228;-64
2021/12/19 00:56:09;;;;;;;108.20;23.10;;;5.20;99.90;;;;;;5080880;28;20203;-65
2021/12/19 00:58:37;;;;;;;99.00;22.20;;;5.20;99.90;;;;;;5086447;28;20199;-64
2021/12/19 01:01:09;;;;;;;97.47;20.87;;;5.20;99.90;;;;;;5084575;28;20331;-65
2021/12/19 01:03:43;;;;;;;87.47;19.20;;;5.20;99.90;;;;;;5089727;28;20300;-65
2021/12/19 01:06:16;;;;;;;95.07;20.83;;;5.10;99.90;;;;;;5061789;28;20206;-64
2021/12/19 01:08:45;;;;;;;88.90;19.77;;;5.20;99.90;;;;;;5060052;28;20261;-64
2021/12/19 01:11:14;;;;;;;98.43;20.83;;;5.10;99.90;;;;;;5074975;28;20558;-65
2021/12/19 01:13:43;;;;;;;89.40;20.17;;;5.10;99.90;;;;;;5067159;28;20253;-65
2021/12/19 01:16:15;;;;;;;98.73;21.93;;;5.20;99.90;;;;;;5060016;28;20925;-64
2021/12/19 01:18:44;;;;;;;108.07;22.93;;;5.20;99.90;;;;;;5077260;28;20207;-65
2021/12/19 01:21:13;;;;;;;100.73;21.97;;;5.20;99.90;;;;;;5077677;28;20278;-64
2021/12/19 01:23:42;;;;;;;101.70;21.80;;;5.20;99.90;;;;;;5085406;28;20281;-64
2021/12/19 01:26:11;;;;;;;106.00;23.93;;;5.10;99.90;;;;;;5064892;28;20215;-64
2021/12/19 01:28:40;;;;;;;102.30;22.10;;;5.20;99.90;;;;;;5081986;28;20666;-64
2021/12/19 01:31:08;;;;;;;99.27;22.10;;;5.20;99.90;;;;;;5068237;28;20244;-64
2021/12/19 01:33:38;;;;;;;113.47;22.07;;;5.10;99.90;;;;;;5064996;28;20183;-65
2021/12/19 01:36:07;;;;;;;104.40;22.37;;;5.20;99.90;;;;;;5079561;28;20199;-65
2021/12/19 01:38:36;;;;;;;117.80;23.43;;;5.20;99.90;;;;;;5073159;28;20237;-65
2021/12/19 01:41:04;;;;;;;108.80;21.97;;;5.20;99.90;;;;;;5070188;28;20200;-64
2021/12/19 01:43:33;;;;;;;117.40;24.47;;;5.20;99.90;;;;;;5061390;28;20227;-64
2021/12/19 01:46:02;;;;;;;102.77;22.87;;;5.20;99.90;;;;;;5053452;28;20258;-64
2021/12/19 01:48:31;;;;;;;106.07;22.53;;;5.20;99.90;;;;;;5068561;28;20231;-65
2021/12/19 01:51:01;;;;;;;122.43;23.93;;;5.30;99.90;;;;;;5078699;28;20206;-65
2021/12/19 01:53:29;;;;;;;129.93;25.57;;;5.20;99.90;;;;;;5060803;28;20184;-65
2021/12/19 01:55:58;;;;;;;128.87;24.53;;;5.20;99.90;;;;;;5059684;28;20788;-64
2021/12/19 01:58:27;;;;;;;132.43;25.10;;;5.20;99.90;;;;;;5079298;28;20278;-64
2021/12/19 02:00:57;;;;;;;130.70;24.53;;;5.20;99.90;;;;;;5055362;28;20307;-65
2021/12/19 02:03:27;;;;;;;141.30;25.17;;;5.20;99.90;;;;;;5066372;28;20215;-64
2021/12/19 02:05:56;;;;;;;133.47;24.93;;;5.30;99.90;;;;;;5056298;28;20839;-64
2021/12/19 02:08:26;;;;;;;111.60;23.37;;;5.20;99.90;;;;;;5073950;28;20234;-65
2021/12/19 02:10:54;;;;;;;114.17;23.13;;;5.20;99.90;;;;;;5075557;28;20577;-65
2021/12/19 02:13:22;;;;;;;113.47;22.03;;;5.20;99.90;;;;;;5065485;28;20239;-64
2021/12/19 02:15:51;;;;;;;114.20;23.23;;;5.20;99.90;;;;;;5080091;28;20287;-65
2021/12/19 02:18:22;;;;;;;110.17;21.20;;;5.30;99.90;;;;;;5086903;28;20278;-65
2021/12/19 02:20:55;;;;;;;117.33;24.40;;;5.30;99.90;;;;;;5085954;28;20199;-64
2021/12/19 02:23:26;;;;;;;109.67;20.87;;;5.20;99.90;;;;;;5056979;28;20224;-65
2021/12/19 02:25:56;;;;;;;101.03;21.33;;;5.20;99.90;;;;;;5068976;28;20191;-64
2021/12/19 02:28:25;;;;;;;117.93;22.33;;;5.20;99.90;;;;;;5091315;28;20194;-65
2021/12/19 02:30:53;;;;;;;120.20;23.27;;;5.20;99.90;;;;;;5085604;28;20204;-65
2021/12/19 02:33:25;;;;;;;108.57;22.00;;;5.20;99.90;;;;;;5075284;28;20195;-65
2021/12/19 02:36:03;;;;;;;111.93;22.07;;;5.20;99.90;;;;;;5077149;28;20192;-65
2021/12/19 02:39:15;;;;;;;103.40;21.57;;;5.20;99.90;;;;;;5062452;28;20195;-65
2021/12/19 02:49:43;;;;;;;120.40;21.57;;;5.30;99.90;;;;;;5076612;28;20227;-65
2021/12/19 02:52:14;;;;;;;109.67;20.53;;;5.30;99.90;;;;;;5063221;28;20241;-64
2021/12/19 02:54:42;;;;;;;118.47;21.67;;;5.30;99.90;;;;;;5066385;28;20336;-65
2021/12/19 02:57:12;;;;;;;105.10;20.00;;;5.30;99.90;;;;;;5081105;28;20658;-65
2021/12/19 02:59:40;;;;;;;124.87;20.77;;;5.30;99.90;;;;;;5076686;28;20277;-65
2021/12/19 03:02:09;;;;;;;111.77;20.00;;;5.30;99.90;;;;;;5085315;28;20204;-65
2021/12/19 03:04:38;;;;;;;116.07;21.70;;;5.30;99.90;;;;;;5086556;28;20238;-65
2021/12/19 03:07:07;;;;;;;124.07;19.27;;;5.30;99.90;;;;;;5089758;28;20204;-64
2021/12/19 03:09:56;;;;;;;118.03;19.87;;;5.30;99.90;;;;;;5074740;28;20234;-64
2021/12/19 03:12:36;;;;;;;132.70;20.43;;;5.30;99.90;;;;;;5083068;28;20586;-64
2021/12/19 03:18:05;;;;;;;129.87;19.97;;;5.30;99.90;;;;;;5046484;28;20216;-64
2021/12/19 03:20:35;;;;;;;113.37;18.30;;;5.40;99.90;;;;;;5078823;28;20230;-65
2021/12/19 03:23:04;;;;;;;118.13;18.77;;;5.40;99.90;;;;;;5088613;28;20211;-65
2021/12/19 03:25:35;;;;;;;122.90;19.20;;;5.40;99.90;;;;;;5080741;28;20274;-64
2021/12/19 03:28:05;;;;;;;122.27;18.97;;;5.40;99.90;;;;;;5077054;28;20195;-65
2021/12/19 03:30:37;;;;;;;117.53;19.20;;;5.40;99.90;;;;;;5081737;28;20200;-65
2021/12/19 03:33:07;;;;;;;145.97;21.23;;;5.40;99.90;;;;;;5092526;28;20206;-64
2021/12/19 03:35:36;;;;;;;136.50;21.33;;;5.40;99.90;;;;;;5082308;28;20194;-64
2021/12/19 03:38:07;;;;;;;137.90;20.00;;;5.40;99.90;;;;;;5080663;28;20203;-65
2021/12/19 03:40:40;;;;;;;140.43;20.67;;;5.40;99.90;;;;;;5079523;28;20258;-65
2021/12/19 03:43:11;;;;;;;119.17;19.77;;;5.40;99.90;;;;;;5087567;28;20211;-64
2021/12/19 03:45:40;;;;;;;135.40;20.70;;;5.40;99.90;;;;;;5085165;28;20211;-64
2021/12/19 03:48:12;;;;;;;138.57;20.17;;;5.40;99.90;;;;;;5084617;28;20287;-65
2021/12/19 03:50:43;;;;;;;130.57;21.47;;;5.40;99.90;;;;;;5078869;28;20678;-64
2021/12/19 03:53:12;;;;;;;137.27;20.37;;;5.40;99.90;;;;;;5084091;28;20231;-65
2021/12/19 03:55:42;;;;;;;123.50;19.77;;;5.40;99.90;;;;;;5082485;28;20246;-65
2021/12/19 03:58:10;;;;;;;115.70;19.60;;;5.40;99.90;;;;;;5079279;28;20621;-64
2021/12/19 04:00:42;;;;;;;121.40;18.83;;;5.40;99.90;;;;;;5076472;28;20196;-64
2021/12/19 04:03:17;;;;;;;147.40;20.80;;;5.40;99.90;;;;;;5082309;28;20257;-65
2021/12/19 04:05:47;;;;;;;137.80;21.67;;;5.40;99.90;;;;;;5062898;28;20233;-64
2021/12/19 04:08:16;;;;;;;178.73;24.90;;;5.40;99.90;;;;;;5083078;28;20203;-65
2021/12/19 04:10:46;;;;;;;134.63;20.63;;;5.40;99.90;;;;;;5093504;28;20195;-65
2021/12/19 04:13:15;;;;;;;129.67;19.87;;;5.40;99.90;;;;;;5081781;28;20780;-64
2021/12/19 04:15:44;;;;;;;156.33;23.00;;;5.40;99.90;;;;;;5081808;28;20192;-64
2021/12/19 04:18:13;;;;;;;122.47;21.33;;;5.40;99.90;;;;;;5085318;28;20218;-64
2021/12/19 04:20:42;;;;;;;137.73;21.97;;;5.40;99.90;;;;;;5074387;28;20275;-64
2021/12/19 04:23:10;;;;;;;122.97;21.27;;;5.40;99.90;;;;;;5088956;28;20273;-64
2021/12/19 04:25:39;;;;;;;148.63;21.37;;;5.50;99.90;;;;;;5083066;28;20581;-64
2021/12/19 04:28:10;;;;;;;148.50;21.93;;;5.50;99.90;;;;;;5086466;28;20195;-64
2021/12/19 04:30:39;;;;;;;134.90;22.07;;;5.50;99.90;;;;;;5088562;28;20558;-65
2021/12/19 04:33:10;;;;;;;140.23;21.97;;;5.50;99.90;;;;;;5085112;28;20195;-64
2021/12/19 04:35:42;;;;;;;131.63;21.40;;;5.50;99.90;;;;;;5085191;28;20611;-64
2021/12/19 04:41:12;;;;;;;136.07;21.67;;;5.50;99.90;;;;;;5051752;28;20196;-64
2021/12/19 04:58:15;;;;;;;117.70;21.43;;;5.40;99.90;;;;;;5058061;28;20265;-64
2021/12/19 05:00:54;;;;;;;128.17;23.93;;;5.40;99.90;;;;;;5082430;28;20204;-64
2021/12/19 05:03:33;;;;;;;129.70;22.77;;;5.40;99.90;;;;;;5087561;28;20203;-64
2021/12/19 05:06:08;;;;;;;113.30;20.27;;;5.40;99.90;;;;;;5086177;28;20206;-65
2021/12/19 05:14:12;;;;;;;146.57;22.77;;;5.40;99.90;;;;;;5081063;28;20238;-64
2021/12/19 05:16:45;;;;;;;138.10;22.13;;;5.40;99.90;;;;;;5087255;28;20253;-65
2021/12/19 05:19:24;;;;;;;143.27;21.73;;;5.40;99.90;;;;;;5063485;28;20222;-64
2021/12/19 05:21:57;;;;;;;126.60;21.00;;;5.40;99.90;;;;;;5086120;28;20195;-64
2021/12/19 05:27:12;;;;;;;140.27;20.30;;;5.40;99.90;;;;;;5061968;28;20191;-65
2021/12/19 05:29:41;;;;;;;120.00;18.80;;;5.50;99.90;;;;;;5077533;28;20735;-64
2021/12/19 05:32:11;;;;;;;120.03;19.87;;;5.50;99.90;;;;;;5071085;28;20604;-64
2021/12/19 05:34:40;;;;;;;152.40;21.67;;;5.50;99.90;;;;;;5086765;28;20203;-64
2021/12/19 05:45:27;;;;;;;122.33;18.60;;;5.50;99.90;;;;;;5063829;28;20620;-64
2021/12/19 05:47:57;;;;;;;109.27;18.47;;;5.50;99.90;;;;;;5076264;28;20197;-64
2021/12/19 05:50:26;;;;;;;147.17;21.00;;;5.50;99.90;;;;;;5048914;28;20212;-65
2021/12/19 05:52:55;;;;;;;141.07;20.60;;;5.50;99.90;;;;;;5079570;28;20241;-64
2021/12/19 05:55:24;;;;;;;138.37;19.67;;;5.50;99.90;;;;;;5082709;28;20196;-64
2021/12/19 05:57:52;;;;;;;131.13;19.07;;;5.50;99.90;;;;;;5078002;28;20708;-64
2021/12/19 06:00:21;;;;;;;172.80;22.33;;;5.50;99.90;;;;;;5076346;28;20277;-64
2021/12/19 06:03:16;;;;;;;130.30;19.73;;;5.50;99.90;;;;;;5078708;28;20648;-64
2021/12/19 06:05:44;;;;;;;146.50;21.60;;;5.50;99.90;;;;;;5066036;28;20208;-64
2021/12/19 06:08:13;;;;;;;146.70;21.17;;;5.50;99.90;;;;;;5084499;28;20788;-64
2021/12/19 06:10:41;;;;;;;133.40;19.80;;;5.50;99.90;;;;;;5080608;28;20195;-64
2021/12/19 06:13:10;;;;;;;134.00;20.33;;;5.50;99.90;;;;;;5076825;28;20246;-65
2021/12/19 06:15:38;;;;;;;161.13;20.63;;;5.50;99.90;;;;;;5078656;28;20191;-64
2021/12/19 06:18:07;;;;;;;134.87;19.87;;;5.50;99.90;;;;;;5067496;28;20187;-65
2021/12/19 06:20:37;;;;;;;126.37;19.40;;;5.50;99.90;;;;;;5060902;28;20202;-65
2021/12/19 06:23:08;;;;;;;117.23;19.57;;;5.50;99.90;;;;;;5082226;28;20271;-64
2021/12/19 06:25:37;;;;;;;138.07;21.37;;;5.50;99.90;;;;;;5060255;28;20222;-64
2021/12/19 06:28:10;;;;;;;100.33;17.40;;;5.50;99.90;;;;;;5084731;28;20232;-64
2021/12/19 06:30:39;;;;;;;116.53;17.73;;;5.50;99.90;;;;;;5079694;28;20610;-64
2021/12/19 06:33:10;;;;;;;87.80;16.90;;;5.50;99.90;;;;;;5084370;28;20216;-64
2021/12/19 06:35:40;;;;;;;95.73;16.67;;;5.50;99.90;;;;;;5073073;28;20194;-64
2021/12/19 06:38:08;;;;;;;80.23;14.93;;;5.50;99.90;;;;;;5058541;28;20580;-65
2021/12/19 06:40:37;;;;;;;99.33;15.87;;;5.50;99.90;;;;;;5077745;28;20220;-64
2021/12/19 06:43:08;;;;;;;99.73;17.80;;;5.50;99.90;;;;;;5074811;28;20235;-64
2021/12/19 06:45:37;;;;;;;79.13;16.33;;;5.40;99.90;;;;;;5077593;28;20721;-65
2021/12/19 06:48:06;;;;;;;79.73;14.80;;;5.40;99.90;;;;;;5075238;28;20267;-64
2021/12/19 06:50:35;;;;;;;75.53;14.83;;;5.40;99.90;;;;;;5082105;28;20610;-64
2021/12/19 06:53:05;;;;;;;74.17;13.93;;;5.40;99.90;;;;;;5076841;28;20264;-64
2021/12/19 06:55:33;;;;;;;79.67;14.73;;;5.30;99.90;;;;;;5063135;28;20188;-64
2021/12/19 06:58:02;;;;;;;78.30;16.53;;;5.40;99.90;;;;;;5065781;28;20277;-65
2021/12/19 07:00:30;;;;;;;79.90;17.03;;;5.30;99.90;;;;;;5074965;28;20203;-64
2021/12/19 07:02:59;;;;;;;94.03;18.87;;;5.40;99.90;;;;;;5082207;28;20618;-64
2021/12/19 07:05:28;;;;;;;102.90;20.77;;;5.40;99.90;;;;;;5084233;28;20226;-65
2021/12/19 07:07:56;;;;;;;95.10;18.07;;;5.30;99.90;;;;;;5083689;28;20247;-64
2021/12/19 07:10:26;;;;;;;98.83;17.83;;;5.30;99.90;;;;;;5061876;28;20229;-64
2021/12/19 07:12:54;;;;;;;104.37;17.17;;;5.30;99.90;;;;;;5073017;28;20885;-64
2021/12/19 07:15:24;;;;;;;97.13;17.83;;;5.30;99.90;;;;;;5083600;28;20599;-64
2021/12/19 07:17:53;;;;;;;95.87;17.03;;;5.40;99.90;;;;;;5060008;28;20201;-64
2021/12/19 07:20:21;;;;;;;114.23;18.57;;;5.40;99.90;;;;;;5075002;28;20209;-64
2021/12/19 07:22:50;;;;;;;115.67;18.40;;;5.40;99.90;;;;;;5085607;28;20199;-64
2021/12/19 07:25:18;;;;;;;103.47;17.03;;;5.40;99.90;;;;;;5081175;28;20667;-64
2021/12/19 07:27:48;;;;;;;102.07;17.57;;;5.40;99.90;;;;;;5083420;28;20810;-64
2021/12/19 07:30:16;;;;;;;111.33;17.53;;;5.40;99.90;;;;;;5080312;28;20196;-64
2021/12/19 07:32:45;;;;;;;113.17;18.53;;;5.50;99.90;;;;;;5077806;28;20271;-65
2021/12/19 07:35:22;;;;;;;109.60;19.23;;;5.50;99.90;;;;;;5059724;28;20673;-64
2021/12/19 07:37:52;;;;;;;124.13;17.57;;;5.50;99.90;;;;;;5073843;28;20199;-64
2021/12/19 07:40:22;;;;;;;100.63;16.90;;;5.50;99.90;;;;;;5080966;28;20249;-65
2021/12/19 07:42:52;;;;;;;145.23;19.10;;;5.50;99.90;;;;;;5091026;28;20722;-64
2021/12/19 07:45:21;;;;;;;137.30;20.50;;;5.50;99.90;;;;;;5079369;28;20244;-65
2021/12/19 07:47:49;;;;;;;146.90;19.90;;;5.50;99.90;;;;;;5055554;28;20618;-64
2021/12/19 07:50:18;;;;;;;199.10;21.50;;;5.50;99.90;;;;;;5081150;28;20783;-64
2021/12/19 07:52:46;;;;;;;126.30;19.23;;;5.50;99.90;;;;;;5063104;28;20615;-64
2021/12/19 07:55:15;;;;;;;142.57;19.27;;;5.50;99.90;;;;;;5082102;28;20666;-65
2021/12/19 07:57:44;;;;;;;147.57;19.93;;;5.50;99.90;;;;;;5086565;28;20568;-64
2021/12/19 08:00:20;;;;;;;116.73;18.90;;;5.50;99.90;;;;;;5077818;28;20191;-64
2021/12/19 08:02:50;;;;;;;155.57;19.97;;;5.50;99.90;;;;;;5085776;28;20286;-64
2021/12/19 08:05:21;;;;;;;121.70;19.80;;;5.50;99.90;;;;;;5084943;28;20880;-65
2021/12/19 08:07:55;;;;;;;125.67;19.60;;;5.60;99.90;;;;;;5084505;28;20211;-64
2021/12/19 08:13:08;;;;;;;158.47;19.90;;;5.60;99.90;;;;;;5052028;28;20259;-64
2021/12/19 08:15:39;;;;;;;161.27;19.93;;;5.60;99.90;;;;;;5080797;28;20658;-64
2021/12/19 08:18:08;;;;;;;148.47;18.77;;;5.60;99.90;;;;;;5084783;28;20207;-65
2021/12/19 08:20:36;;;;;;;157.50;20.97;;;5.60;99.90;;;;;;5083056;28;20187;-64
2021/12/19 08:23:05;;;;;;;184.23;21.07;;;5.60;99.90;;;;;;5089613;28;20714;-64
2021/12/19 08:25:34;;;;;;;122.27;17.60;;;5.70;99.90;;;;;;5061195;28;20741;-65
2021/12/19 08:28:02;;;;;;;138.17;20.90;;;5.70;99.90;;;;;;5072634;28;20302;-65
2021/12/19 08:30:31;;;;;;;126.60;19.00;;;5.70;99.90;;;;;;5064698;28;20188;-64
2021/12/19 08:33:01;;;;;;;145.77;21.87;;;5.70;99.90;;;;;;5087063;28;20227;-64
2021/12/19 08:35:29;;;;;;;167.83;23.23;;;5.70;99.90;;;;;;5076247;28;20214;-65
2021/12/19 08:37:58;;;;;;;167.10;24.17;;;5.70;99.90;;;;;;5086540;28;20199;-64
2021/12/19 08:40:28;;;;;;;142.30;20.93;;;5.80;99.90;;;;;;5080372;28;20196;-64
2021/12/19 08:42:57;;;;;;;147.87;20.13;;;5.80;99.90;;;;;;5082257;28;20200;-64
2021/12/19 08:45:26;;;;;;;156.03;21.10;;;5.80;99.90;;;;;;5083812;28;20670;-64
2021/12/19 08:47:55;;;;;;;118.90;18.57;;;5.80;99.90;;;;;;5089786;28;20271;-64
2021/12/19 08:50:25;;;;;;;91.33;17.33;;;5.80;99.90;;;;;;5069435;28;20195;-64
2021/12/19 08:52:54;;;;;;;96.43;16.53;;;5.90;99.90;;;;;;5083005;28;20647;-64
2021/12/19 08:55:23;;;;;;;106.53;17.57;;;5.90;99.90;;;;;;5085452;28;20202;-64
2021/12/19 08:57:51;;;;;;;90.10;16.67;;;5.90;99.90;;;;;;5083590;28;20724;-64
2021/12/19 09:00:21;;;;;;;112.10;17.63;;;5.90;99.90;;;;;;5075867;28;20230;-65
2021/12/19 09:02:52;;;;;;;96.90;16.50;;;5.90;99.90;;;;;;5057993;28;20203;-64
2021/12/19 09:05:21;;;;;;;91.23;17.50;;;5.90;99.90;;;;;;5063899;28;20192;-64
2021/12/19 09:07:51;;;;;;;87.23;16.10;;;6.00;99.90;;;;;;5059374;28;20273;-65
2021/12/19 09:10:21;;;;;;;75.83;16.30;;;6.00;99.90;;;;;;5078349;28;20558;-64
2021/12/19 09:12:50;;;;;;;73.17;15.13;;;6.00;99.90;;;;;;5077348;28;20296;-64
2021/12/19 09:15:20;;;;;;;88.97;16.47;;;6.00;99.90;;;;;;5083217;28;20201;-64
2021/12/19 09:17:49;;;;;;;85.00;15.63;;;6.10;99.90;;;;;;5075696;28;20203;-64
2021/12/19 09:20:18;;;;;;;78.07;15.70;;;6.10;99.90;;;;;;5063668;28;20199;-64
2021/12/19 09:22:47;;;;;;;79.60;16.27;;;6.10;99.90;;;;;;5061820;28;20200;-64
2021/12/19 09:25:20;;;;;;;85.27;15.53;;;6.10;99.90;;;;;;5080628;28;20199;-64
2021/12/19 09:27:49;;;;;;;87.00;16.50;;;6.10;99.90;;;;;;5079926;28;20970;-64
2021/12/19 09:30:18;;;;;;;78.57;16.23;;;6.20;99.90;;;;;;5076958;28;20200;-64
2021/12/19 09:32:47;;;;;;;83.17;17.87;;;6.20;99.90;;;;;;5074602;28;20208;-64
2021/12/19 09:35:16;;;;;;;74.37;15.10;;;6.20;99.90;;;;;;5075862;28;20199;-65
2021/12/19 09:37:45;;;;;;;84.27;16.53;;;6.20;99.90;;;;;;5085132;28;20219;-65
2021/12/19 09:40:19;;;;;;;74.00;17.23;;;6.20;99.90;;;;;;5078228;28;20203;-64
2021/12/19 09:42:52;;;;;;;86.47;19.37;;;6.30;99.90;;;;;;5077219;28;20714;-64
2021/12/19 09:45:21;;;;;;;67.67;15.43;;;6.30;99.90;;;;;;5074711;28;20199;-64
2021/12/19 09:47:50;;;;;;;52.53;14.70;;;6.30;99.90;;;;;;5080029;28;20223;-65
2021/12/19 09:50:18;;;;;;;66.17;16.30;;;6.30;99.90;;;;;;5083908;28;20274;-64
2021/12/19 09:52:49;;;;;;;63.60;15.97;;;6.30;99.90;;;;;;5068999;28;20191;-64
2021/12/19 09:55:21;;;;;;;69.23;19.10;;;6.40;99.90;;;;;;5085906;28;20191;-64
2021/12/19 09:57:53;;;;;;;58.37;15.73;;;6.40;99.90;;;;;;5082758;28;20195;-64
2021/12/19 10:00:22;;;;;;;47.90;13.17;;;6.40;99.90;;;;;;5078783;28;20230;-64
2021/12/19 10:02:51;;;;;;;49.40;14.63;;;6.50;99.90;;;;;;5086280;28;20207;-64
2021/12/19 10:05:22;;;;;;;46.63;14.33;;;6.50;99.90;;;;;;5075562;28;20267;-65
2021/12/19 10:07:53;;;;;;;46.60;14.13;;;6.40;99.90;;;;;;5079365;28;20686;-64
2021/12/19 10:10:36;;;;;;;51.23;15.47;;;6.50;99.90;;;;;;5078860;28;20196;-64
2021/12/19 10:13:06;;;;;;;62.83;17.73;;;6.50;99.90;;;;;;5075426;28;20670;-64
2021/12/19 10:15:37;;;;;;;62.70;16.83;;;6.60;99.90;;;;;;5060939;28;20196;-64
2021/12/19 10:18:08;;;;;;;59.03;17.13;;;6.60;99.90;;;;;;5055115;28;20596;-64
2021/12/19 10:20:50;;;;;;;55.70;18.30;;;6.60;99.90;;;;;;5073061;28;20184;-64
2021/12/19 10:23:21;;;;;;;53.63;18.60;;;6.60;99.90;;;;;;5074174;28;20242;-65
2021/12/19 10:26:03;;;;;;;52.50;17.67;;;6.60;99.90;;;;;;5056670;28;20287;-64
2021/12/19 10:28:34;;;;;;;54.00;17.10;;;6.60;99.90;;;;;;5075723;28;20261;-64
2021/12/19 10:31:04;;;;;;;40.87;13.63;;;6.60;99.90;;;;;;5071587;28;20192;-65
2021/12/19 10:33:33;;;;;;;34.73;12.27;;;6.60;99.90;;;;;;5076978;28;20735;-64
2021/12/19 10:36:04;;;;;;;29.97;11.13;;;6.60;99.90;;;;;;5057892;28;20210;-64
2021/12/19 10:38:34;;;;;;;34.17;12.27;;;6.60;99.90;;;;;;5080385;28;20250;-65
2021/12/19 10:41:10;;;;;;;38.03;13.07;;;6.60;99.90;;;;;;5072518;28;20207;-65
2021/12/19 10:43:46;;;;;;;40.17;13.07;;;6.60;99.90;;;;;;5079471;28;20199;-65
2021/12/19 10:46:14;;;;;;;36.13;13.30;;;6.70;99.90;;;;;;5058244;28;20192;-64
2021/12/19 10:48:44;;;;;;;36.90;12.40;;;6.70;99.90;;;;;;5051897;28;20271;-64
2021/12/19 10:51:15;;;;;;;37.10;13.70;;;6.70;99.90;;;;;;5064926;28;20196;-65
2021/12/19 10:53:45;;;;;;;38.60;13.90;;;6.70;99.90;;;;;;5058020;28;20666;-64
2021/12/19 10:56:16;;;;;;;40.07;15.47;;;6.70;99.90;;;;;;5085125;28;20196;-64
2021/12/19 10:58:52;;;;;;;39.03;14.87;;;6.80;99.90;;;;;;5062792;28;20249;-64
2021/12/19 11:01:25;;;;;;;35.50;14.03;;;6.80;99.90;;;;;;5076323;28;20217;-64
2021/12/19 11:04:04;;;;;;;38.97;15.07;;;6.80;99.90;;;;;;5082121;28;20206;-64
2021/12/19 11:06:37;;;;;;;31.10;13.00;;;6.80;99.90;;;;;;5080051;28;20207;-64
2021/12/19 11:09:09;;;;;;;34.23;13.10;;;6.80;99.90;;;;;;5081371;28;20216;-65
2021/12/19 11:11:42;;;;;;;33.77;13.03;;;6.80;99.90;;;;;;5079807;28;20207;-64
2021/12/19 11:14:18;;;;;;;30.40;12.63;;;6.80;99.90;;;;;;5082185;28;20223;-65
2021/12/19 11:16:47;;;;;;;29.73;12.73;;;6.70;99.90;;;;;;5079891;28;20214;-65
2021/12/19 11:19:16;;;;;;;28.63;12.80;;;6.80;99.90;;;;;;5081447;28;20196;-64
2021/12/19 11:22:05;;;;;;;26.47;12.53;;;6.80;99.90;;;;;;5076048;28;20709;-65
2021/12/19 11:24:34;;;;;;;29.03;12.33;;;6.80;99.90;;;;;;5060515;28;20260;-65
2021/12/19 11:27:05;;;;;;;33.40;13.00;;;6.80;99.90;;;;;;5071897;28;20207;-65
2021/12/19 11:29:35;;;;;;;45.20;15.73;;;6.80;99.90;;;;;;5060217;28;20533;-65
2021/12/19 11:32:08;;;;;;;44.40;17.23;;;6.90;99.90;;;;;;5078052;28;20317;-64
2021/12/19 11:34:52;;;;;;;32.97;14.10;;;6.90;99.90;;;;;;5056276;28;20689;-64
2021/12/19 11:37:26;;;;;;;28.60;12.60;;;6.90;99.90;;;;;;5077481;28;20192;-64
2021/12/19 11:39:56;;;;;;;26.60;12.60;;;6.90;99.90;;;;;;5077667;28;20192;-64
2021/12/19 11:42:33;;;;;;;30.33;13.90;;;6.90;99.90;;;;;;5074621;28;20662;-64
2021/12/19 11:45:26;;;;;;;25.03;12.57;;;7.00;99.90;;;;;;5078353;28;20248;-64
2021/12/19 11:48:00;;;;;;;25.43;12.53;;;6.90;99.90;;;;;;5078816;28;20192;-64
2021/12/19 11:50:31;;;;;;;29.13;11.73;;;7.00;99.90;;;;;;5080057;28;20219;-64
2021/12/19 11:53:21;;;;;;;23.50;11.57;;;7.00;99.90;;;;;;5060883;28;20192;-64
2021/12/19 11:55:51;;;;;;;23.33;12.30;;;7.00;99.90;;;;;;5084252;28;20188;-65
2021/12/19 11:58:23;;;;;;;24.00;11.80;;;7.00;99.90;;;;;;5074390;28;20203;-64
2021/12/19 12:00:59;;;;;;;25.27;12.50;;;7.10;99.90;;;;;;5076804;28;20211;-64
2021/12/19 12:03:40;;;;;;;26.37;11.90;;;7.10;99.90;;;;;;5077437;28;20295;-64
2021/12/19 12:06:42;;;;;;;21.77;11.87;;;7.10;99.90;;;;;;5066141;28;20287;-64
2021/12/19 12:09:22;;;;;;;29.40;12.33;;;7.10;99.90;;;;;;5081360;28;20207;-65
2021/12/19 12:12:22;;;;;;;22.23;12.37;;;7.20;99.90;;;;;;5078667;28;20199;-64
2021/12/19 12:15:04;;;;;;;24.90;12.87;;;7.20;99.90;;;;;;5079500;28;20763;-65
2021/12/19 12:17:49;;;;;;;21.83;12.23;;;7.20;99.90;;;;;;5060523;28;20778;-64
2021/12/19 12:20:29;;;;;;;27.93;14.00;;;7.20;99.90;;;;;;5081644;28;20581;-64
2021/12/19 12:23:05;;;;;;;23.77;13.27;;;7.20;99.90;;;;;;5080360;28;20278;-64
2021/12/19 12:25:36;;;;;;;25.87;13.37;;;7.20;99.90;;;;;;5079859;28;20275;-65
2021/12/19 12:28:08;;;;;;;29.17;14.97;;;7.20;99.90;;;;;;5067335;28;20683;-64
2021/12/19 12:30:41;;;;;;;28.27;15.00;;;7.20;99.90;;;;;;5088809;28;20258;-64
2021/12/19 12:33:14;;;;;;;25.30;14.10;;;7.20;99.90;;;;;;5057769;28;20196;-65
2021/12/19 12:35:45;;;;;;;26.77;14.97;;;7.20;99.90;;;;;;5079027;28;20198;-65
2021/12/19 12:38:14;;;;;;;29.43;15.67;;;7.20;99.90;;;;;;5060631;28;20200;-64
2021/12/19 12:40:53;;;;;;;28.90;15.43;;;7.20;99.90;;;;;;5069304;28;20199;-65
2021/12/19 12:43:23;;;;;;;24.37;14.13;;;7.20;99.90;;;;;;5058925;28;20199;-65
2021/12/19 12:46:10;;;;;;;30.10;14.17;;;7.20;99.90;;;;;;5081144;28;20203;-64
2021/12/19 12:48:54;;;;;;;26.13;14.37;;;7.20;99.90;;;;;;5073466;28;20208;-64
2021/12/19 12:51:30;;;;;;;30.70;14.40;;;7.30;99.90;;;;;;5082465;28;20203;-64
2021/12/19 12:54:03;;;;;;;17.57;10.17;;;7.30;99.90;;;;;;5058312;28;20192;-64
2021/12/19 12:56:35;;;;;;;15.27;9.03;;;7.30;99.90;;;;;;5081419;28;20226;-65
2021/12/19 12:59:06;;;;;;;14.47;8.63;;;7.30;99.90;;;;;;5076589;28;20211;-65
2021/12/19 13:01:37;;;;;;;9.23;7.43;;;7.30;99.90;;;;;;5064903;28;20864;-64
2021/12/19 13:04:12;;;;;;;8.93;6.60;;;7.30;99.90;;;;;;5079399;28;20249;-65
2021/12/19 13:06:57;;;;;;;10.03;6.83;;;7.30;99.90;;;;;;5081816;28;20200;-64
2021/12/19 13:09:35;;;;;;;7.33;5.63;;;7.40;99.90;;;;;;5087529;28;20210;-64
2021/12/19 13:12:10;;;;;;;8.20;5.73;;;7.40;99.90;;;;;;5080672;28;20211;-64
2021/12/19 13:14:40;;;;;;;5.23;4.70;;;7.40;99.90;;;;;;5061585;28;20363;-64
2021/12/19 13:17:12;;;;;;;6.30;4.80;;;7.40;99.90;;;;;;5085202;28;20215;-65
2021/12/19 13:19:46;;;;;;;4.80;4.40;;;7.40;99.90;;;;;;5083312;28;20196;-64
2021/12/19 13:22:20;;;;;;;6.30;4.17;;;7.40;99.90;;;;;;5080921;28;20937;-64
2021/12/19 13:24:51;;;;;;;5.83;3.80;;;7.30;99.90;;;;;;5085878;28;20973;-64
2021/12/19 13:27:23;;;;;;;4.50;4.10;;;7.30;99.90;;;;;;5089570;28;20251;-65
2021/12/19 13:30:01;;;;;;;4.37;3.97;;;7.30;99.90;;;;;;5081101;28;20207;-64
2021/12/19 13:32:33;;;;;;;4.20;3.90;;;7.30;99.90;;;;;;5078991;28;20669;-65
2021/12/19 13:35:08;;;;;;;5.27;4.00;;;7.30;99.90;;;;;;5070396;28;20198;-64
2021/12/19 13:37:51;;;;;;;4.43;4.03;;;7.30;99.90;;;;;;5083871;28;20191;-64
2021/12/19 13:40:24;;;;;;;5.77;4.00;;;7.40;99.90;;;;;;5072800;28;20242;-65
2021/12/19 13:42:59;;;;;;;4.93;3.67;;;7.40;99.90;;;;;;5051629;28;20274;-65
2021/12/19 13:45:34;;;;;;;4.47;4.07;;;7.50;99.90;;;;;;5062677;28;20198;-64
2021/12/19 13:48:06;;;;;;;4.60;3.77;;;7.60;99.90;;;;;;5060063;28;20190;-64